sensor_id;sensor_type;location;lat;lon;timestamp;P1;durP1;ratioP1;P2;durP2;ratioP2
5191;SDS011;2615;44.524;11.284;2024-02-15T00:00:08;19.33;;;13.10;;
5191;SDS011;2615;44.524;11.284;2024-02-15T00:02:37;18.27;;;12.07;;
5191;SDS011;2615;44.524;11.284;2024-02-15T00:05:06;18.30;;;13.20;;
5191;SDS011;2615;44.524;11.284;2024-02-15T00:07:35;17.03;;;11.80;;
5191;SDS011;2615;44.524;11.284;2024-02-15T00:10:03;21.40;;;12.13;;
5191;SDS011;2615;44.524;11.284;2024-02-15T00:12:34;16.17;;;11.30;;
5191;SDS011;2615;44.524;11.284;2024-02-15T00:15:02;14.90;;;10.87;;
5191;SDS011;2615;44.524;11.284;2024-02-15T00:17:31;18.33;;;12.77;;
5191;SDS011;2615;44.524;11.284;2024-02-15T00:20:01;16.83;;;11.97;;
5191;SDS011;2615;44.524;11.284;2024-02-15T00:22:35;17.00;;;10.93;;
5191;SDS011;2615;44.524;11.284;2024-02-15T00:25:04;17.00;;;11.80;;
5191;SDS011;2615;44.524;11.284;2024-02-15T00:27:36;14.07;;;10.80;;
5191;SDS011;2615;44.524;11.284;2024-02-15T00:30:05;18.73;;;11.87;;
5191;SDS011;2615;44.524;11.284;2024-02-15T00:32:34;13.67;;;9.83;;
5191;SDS011;2615;44.524;11.284;2024-02-15T00:35:03;19.63;;;11.57;;
5191;SDS011;2615;44.524;11.284;2024-02-15T00:37:34;28.03;;;11.37;;
5191;SDS011;2615;44.524;11.284;2024-02-15T00:40:03;16.80;;;12.00;;
5191;SDS011;2615;44.524;11.284;2024-02-15T00:42:32;20.50;;;11.97;;
5191;SDS011;2615;44.524;11.284;2024-02-15T00:45:02;17.20;;;11.17;;
5191;SDS011;2615;44.524;11.284;2024-02-15T00:47:31;24.33;;;11.87;;
5191;SDS011;2615;44.524;11.284;2024-02-15T00:49:59;14.23;;;10.30;;
5191;SDS011;2615;44.524;11.284;2024-02-15T00:52:28;16.30;;;10.47;;
5191;SDS011;2615;44.524;11.284;2024-02-15T00:54:57;20.30;;;10.90;;
5191;SDS011;2615;44.524;11.284;2024-02-15T00:57:25;14.57;;;9.47;;
5191;SDS011;2615;44.524;11.284;2024-02-15T00:59:53;14.50;;;11.27;;
5191;SDS011;2615;44.524;11.284;2024-02-15T01:02:23;17.00;;;10.80;;
5191;SDS011;2615;44.524;11.284;2024-02-15T01:04:51;18.97;;;11.40;;
5191;SDS011;2615;44.524;11.284;2024-02-15T01:07:21;17.40;;;11.10;;
5191;SDS011;2615;44.524;11.284;2024-02-15T01:09:53;17.37;;;11.17;;
5191;SDS011;2615;44.524;11.284;2024-02-15T01:12:22;13.27;;;9.43;;
5191;SDS011;2615;44.524;11.284;2024-02-15T01:14:50;16.07;;;11.20;;
5191;SDS011;2615;44.524;11.284;2024-02-15T01:17:18;16.50;;;11.80;;
5191;SDS011;2615;44.524;11.284;2024-02-15T01:19:48;17.47;;;10.30;;
5191;SDS011;2615;44.524;11.284;2024-02-15T01:22:16;14.73;;;9.80;;
5191;SDS011;2615;44.524;11.284;2024-02-15T01:24:45;18.90;;;11.50;;
5191;SDS011;2615;44.524;11.284;2024-02-15T01:27:13;15.60;;;10.20;;
5191;SDS011;2615;44.524;11.284;2024-02-15T01:29:41;13.87;;;9.93;;
5191;SDS011;2615;44.524;11.284;2024-02-15T01:32:09;15.43;;;10.40;;
5191;SDS011;2615;44.524;11.284;2024-02-15T01:34:37;16.83;;;12.90;;
5191;SDS011;2615;44.524;11.284;2024-02-15T01:37:07;17.33;;;10.33;;
5191;SDS011;2615;44.524;11.284;2024-02-15T01:39:35;19.67;;;11.50;;
5191;SDS011;2615;44.524;11.284;2024-02-15T01:42:04;16.47;;;10.83;;
5191;SDS011;2615;44.524;11.284;2024-02-15T01:44:32;16.67;;;11.13;;
5191;SDS011;2615;44.524;11.284;2024-02-15T01:47:00;15.53;;;9.40;;
5191;SDS011;2615;44.524;11.284;2024-02-15T01:49:28;14.33;;;9.87;;
5191;SDS011;2615;44.524;11.284;2024-02-15T01:51:56;18.77;;;10.80;;
5191;SDS011;2615;44.524;11.284;2024-02-15T01:54:27;19.53;;;10.40;;
5191;SDS011;2615;44.524;11.284;2024-02-15T01:56:55;16.50;;;9.83;;
5191;SDS011;2615;44.524;11.284;2024-02-15T01:59:24;13.40;;;10.60;;
5191;SDS011;2615;44.524;11.284;2024-02-15T02:01:53;15.03;;;9.27;;
5191;SDS011;2615;44.524;11.284;2024-02-15T02:04:21;15.00;;;9.50;;
5191;SDS011;2615;44.524;11.284;2024-02-15T02:06:49;12.40;;;9.37;;
5191;SDS011;2615;44.524;11.284;2024-02-15T02:09:17;13.00;;;8.47;;
5191;SDS011;2615;44.524;11.284;2024-02-15T02:11:47;17.53;;;10.90;;
5191;SDS011;2615;44.524;11.284;2024-02-15T02:14:16;13.53;;;8.77;;
5191;SDS011;2615;44.524;11.284;2024-02-15T02:16:47;14.20;;;9.87;;
5191;SDS011;2615;44.524;11.284;2024-02-15T02:19:15;17.90;;;10.70;;
5191;SDS011;2615;44.524;11.284;2024-02-15T02:21:44;15.13;;;9.00;;
5191;SDS011;2615;44.524;11.284;2024-02-15T02:24:18;15.93;;;9.97;;
5191;SDS011;2615;44.524;11.284;2024-02-15T02:26:51;18.63;;;9.50;;
5191;SDS011;2615;44.524;11.284;2024-02-15T02:29:20;12.10;;;8.47;;
5191;SDS011;2615;44.524;11.284;2024-02-15T02:31:49;14.03;;;9.77;;
5191;SDS011;2615;44.524;11.284;2024-02-15T02:34:17;11.27;;;7.83;;
5191;SDS011;2615;44.524;11.284;2024-02-15T02:36:46;12.53;;;9.07;;
5191;SDS011;2615;44.524;11.284;2024-02-15T02:39:14;11.70;;;8.30;;
5191;SDS011;2615;44.524;11.284;2024-02-15T02:41:43;11.73;;;8.73;;
5191;SDS011;2615;44.524;11.284;2024-02-15T02:44:12;12.13;;;8.93;;
5191;SDS011;2615;44.524;11.284;2024-02-15T02:46:41;14.53;;;9.53;;
5191;SDS011;2615;44.524;11.284;2024-02-15T02:49:09;14.43;;;9.27;;
5191;SDS011;2615;44.524;11.284;2024-02-15T02:51:38;11.67;;;8.40;;
5191;SDS011;2615;44.524;11.284;2024-02-15T02:54:06;14.00;;;8.80;;
5191;SDS011;2615;44.524;11.284;2024-02-15T02:56:34;15.47;;;9.17;;
5191;SDS011;2615;44.524;11.284;2024-02-15T02:59:03;14.50;;;8.87;;
5191;SDS011;2615;44.524;11.284;2024-02-15T03:01:34;11.40;;;7.40;;
5191;SDS011;2615;44.524;11.284;2024-02-15T03:04:03;12.23;;;8.37;;
5191;SDS011;2615;44.524;11.284;2024-02-15T03:06:31;11.00;;;8.57;;
5191;SDS011;2615;44.524;11.284;2024-02-15T03:09:00;9.10;;;7.53;;
5191;SDS011;2615;44.524;11.284;2024-02-15T03:11:33;17.20;;;9.37;;
5191;SDS011;2615;44.524;11.284;2024-02-15T03:14:02;13.87;;;9.17;;
5191;SDS011;2615;44.524;11.284;2024-02-15T03:16:30;12.60;;;8.63;;
5191;SDS011;2615;44.524;11.284;2024-02-15T03:19:00;11.47;;;8.50;;
5191;SDS011;2615;44.524;11.284;2024-02-15T03:21:29;12.90;;;8.70;;
5191;SDS011;2615;44.524;11.284;2024-02-15T03:23:58;13.40;;;7.73;;
5191;SDS011;2615;44.524;11.284;2024-02-15T03:26:29;13.60;;;8.20;;
5191;SDS011;2615;44.524;11.284;2024-02-15T03:29:00;12.20;;;8.93;;
5191;SDS011;2615;44.524;11.284;2024-02-15T03:31:28;12.20;;;9.23;;
5191;SDS011;2615;44.524;11.284;2024-02-15T03:33:57;12.13;;;8.73;;
5191;SDS011;2615;44.524;11.284;2024-02-15T03:36:27;13.30;;;8.77;;
5191;SDS011;2615;44.524;11.284;2024-02-15T03:38:56;12.30;;;7.73;;
5191;SDS011;2615;44.524;11.284;2024-02-15T03:41:26;12.13;;;7.97;;
5191;SDS011;2615;44.524;11.284;2024-02-15T03:43:57;17.07;;;8.43;;
5191;SDS011;2615;44.524;11.284;2024-02-15T03:46:26;16.20;;;9.33;;
5191;SDS011;2615;44.524;11.284;2024-02-15T03:48:54;14.60;;;9.07;;
5191;SDS011;2615;44.524;11.284;2024-02-15T03:51:23;13.03;;;8.40;;
5191;SDS011;2615;44.524;11.284;2024-02-15T03:53:53;15.33;;;8.73;;
5191;SDS011;2615;44.524;11.284;2024-02-15T03:56:21;14.50;;;9.57;;
5191;SDS011;2615;44.524;11.284;2024-02-15T03:58:50;12.20;;;8.80;;
5191;SDS011;2615;44.524;11.284;2024-02-15T04:01:18;12.67;;;8.90;;
5191;SDS011;2615;44.524;11.284;2024-02-15T04:03:46;11.83;;;8.53;;
5191;SDS011;2615;44.524;11.284;2024-02-15T04:06:14;13.33;;;9.70;;
5191;SDS011;2615;44.524;11.284;2024-02-15T04:08:42;12.60;;;8.70;;
5191;SDS011;2615;44.524;11.284;2024-02-15T04:11:12;12.93;;;7.80;;
5191;SDS011;2615;44.524;11.284;2024-02-15T04:13:42;12.83;;;8.17;;
5191;SDS011;2615;44.524;11.284;2024-02-15T04:16:11;11.23;;;8.03;;
5191;SDS011;2615;44.524;11.284;2024-02-15T04:18:40;11.50;;;9.90;;
5191;SDS011;2615;44.524;11.284;2024-02-15T04:21:08;14.03;;;8.93;;
5191;SDS011;2615;44.524;11.284;2024-02-15T04:23:36;13.13;;;8.93;;
5191;SDS011;2615;44.524;11.284;2024-02-15T04:26:05;18.47;;;10.90;;
5191;SDS011;2615;44.524;11.284;2024-02-15T04:28:35;14.03;;;9.80;;
5191;SDS011;2615;44.524;11.284;2024-02-15T04:31:03;12.20;;;8.83;;
5191;SDS011;2615;44.524;11.284;2024-02-15T04:33:34;14.00;;;9.50;;
5191;SDS011;2615;44.524;11.284;2024-02-15T04:36:03;14.33;;;8.80;;
5191;SDS011;2615;44.524;11.284;2024-02-15T04:38:33;12.70;;;8.27;;
5191;SDS011;2615;44.524;11.284;2024-02-15T04:41:01;13.53;;;9.13;;
5191;SDS011;2615;44.524;11.284;2024-02-15T04:43:31;17.77;;;8.60;;
5191;SDS011;2615;44.524;11.284;2024-02-15T04:46:01;13.70;;;8.73;;
5191;SDS011;2615;44.524;11.284;2024-02-15T04:48:33;11.80;;;8.90;;
5191;SDS011;2615;44.524;11.284;2024-02-15T04:51:02;12.80;;;8.70;;
5191;SDS011;2615;44.524;11.284;2024-02-15T04:53:30;13.13;;;9.30;;
5191;SDS011;2615;44.524;11.284;2024-02-15T04:55:58;11.70;;;8.30;;
5191;SDS011;2615;44.524;11.284;2024-02-15T04:58:27;12.60;;;8.87;;
5191;SDS011;2615;44.524;11.284;2024-02-15T05:00:55;10.50;;;8.63;;
5191;SDS011;2615;44.524;11.284;2024-02-15T05:03:27;11.57;;;8.70;;
5191;SDS011;2615;44.524;11.284;2024-02-15T05:05:56;16.13;;;9.93;;
5191;SDS011;2615;44.524;11.284;2024-02-15T05:08:24;13.23;;;9.60;;
5191;SDS011;2615;44.524;11.284;2024-02-15T05:10:52;12.97;;;8.47;;
5191;SDS011;2615;44.524;11.284;2024-02-15T05:13:24;9.97;;;7.73;;
5191;SDS011;2615;44.524;11.284;2024-02-15T05:15:52;11.27;;;7.60;;
5191;SDS011;2615;44.524;11.284;2024-02-15T05:18:21;12.10;;;7.60;;
5191;SDS011;2615;44.524;11.284;2024-02-15T05:20:50;10.37;;;7.73;;
5191;SDS011;2615;44.524;11.284;2024-02-15T05:23:18;11.33;;;8.53;;
5191;SDS011;2615;44.524;11.284;2024-02-15T05:25:46;11.60;;;8.40;;
5191;SDS011;2615;44.524;11.284;2024-02-15T05:28:15;11.83;;;8.40;;
5191;SDS011;2615;44.524;11.284;2024-02-15T05:30:44;14.00;;;7.77;;
5191;SDS011;2615;44.524;11.284;2024-02-15T05:33:12;12.60;;;8.23;;
5191;SDS011;2615;44.524;11.284;2024-02-15T05:35:40;8.43;;;7.50;;
5191;SDS011;2615;44.524;11.284;2024-02-15T05:38:14;10.50;;;6.73;;
5191;SDS011;2615;44.524;11.284;2024-02-15T05:40:43;9.67;;;7.43;;
5191;SDS011;2615;44.524;11.284;2024-02-15T05:43:11;11.20;;;7.83;;
5191;SDS011;2615;44.524;11.284;2024-02-15T05:45:40;10.80;;;7.73;;
5191;SDS011;2615;44.524;11.284;2024-02-15T05:48:08;8.90;;;6.37;;
5191;SDS011;2615;44.524;11.284;2024-02-15T05:50:39;14.17;;;8.80;;
5191;SDS011;2615;44.524;11.284;2024-02-15T05:53:07;11.27;;;7.57;;
5191;SDS011;2615;44.524;11.284;2024-02-15T05:55:37;15.43;;;8.37;;
5191;SDS011;2615;44.524;11.284;2024-02-15T05:58:07;12.80;;;8.83;;
5191;SDS011;2615;44.524;11.284;2024-02-15T06:00:37;13.67;;;8.27;;
5191;SDS011;2615;44.524;11.284;2024-02-15T06:03:07;22.30;;;9.30;;
5191;SDS011;2615;44.524;11.284;2024-02-15T06:05:36;12.50;;;8.00;;
5191;SDS011;2615;44.524;11.284;2024-02-15T06:08:04;19.90;;;8.67;;
5191;SDS011;2615;44.524;11.284;2024-02-15T06:10:33;12.50;;;8.43;;
5191;SDS011;2615;44.524;11.284;2024-02-15T06:13:02;14.40;;;8.40;;
5191;SDS011;2615;44.524;11.284;2024-02-15T06:15:30;36.03;;;8.83;;
5191;SDS011;2615;44.524;11.284;2024-02-15T06:17:59;14.10;;;7.50;;
5191;SDS011;2615;44.524;11.284;2024-02-15T06:20:28;11.00;;;8.03;;
5191;SDS011;2615;44.524;11.284;2024-02-15T06:22:57;13.60;;;7.87;;
5191;SDS011;2615;44.524;11.284;2024-02-15T06:25:25;34.47;;;12.07;;
5191;SDS011;2615;44.524;11.284;2024-02-15T06:27:53;25.57;;;8.73;;
5191;SDS011;2615;44.524;11.284;2024-02-15T06:30:27;14.87;;;7.13;;
5191;SDS011;2615;44.524;11.284;2024-02-15T06:33:13;20.50;;;8.77;;
5191;SDS011;2615;44.524;11.284;2024-02-15T06:36:04;19.27;;;8.37;;
5191;SDS011;2615;44.524;11.284;2024-02-15T06:38:50;14.33;;;8.63;;
5191;SDS011;2615;44.524;11.284;2024-02-15T06:41:36;11.87;;;7.20;;
5191;SDS011;2615;44.524;11.284;2024-02-15T06:44:04;12.93;;;8.80;;
5191;SDS011;2615;44.524;11.284;2024-02-15T06:46:33;17.97;;;7.97;;
5191;SDS011;2615;44.524;11.284;2024-02-15T06:49:02;13.57;;;8.27;;
5191;SDS011;2615;44.524;11.284;2024-02-15T06:51:31;15.73;;;8.20;;
5191;SDS011;2615;44.524;11.284;2024-02-15T06:53:59;19.80;;;7.80;;
5191;SDS011;2615;44.524;11.284;2024-02-15T06:56:28;14.40;;;7.90;;
5191;SDS011;2615;44.524;11.284;2024-02-15T06:58:56;11.43;;;8.00;;
5191;SDS011;2615;44.524;11.284;2024-02-15T07:01:25;13.63;;;11.13;;
5191;SDS011;2615;44.524;11.284;2024-02-15T07:03:54;17.80;;;8.90;;
5191;SDS011;2615;44.524;11.284;2024-02-15T07:06:25;14.33;;;8.27;;
5191;SDS011;2615;44.524;11.284;2024-02-15T07:08:54;12.60;;;7.83;;
5191;SDS011;2615;44.524;11.284;2024-02-15T07:11:24;11.50;;;8.27;;
5191;SDS011;2615;44.524;11.284;2024-02-15T07:13:52;14.90;;;8.43;;
5191;SDS011;2615;44.524;11.284;2024-02-15T07:16:21;9.40;;;7.43;;
5191;SDS011;2615;44.524;11.284;2024-02-15T07:18:49;15.83;;;8.57;;
5191;SDS011;2615;44.524;11.284;2024-02-15T07:21:20;13.27;;;8.23;;
5191;SDS011;2615;44.524;11.284;2024-02-15T07:23:52;16.30;;;9.03;;
5191;SDS011;2615;44.524;11.284;2024-02-15T07:26:21;21.60;;;9.00;;
5191;SDS011;2615;44.524;11.284;2024-02-15T07:28:51;14.47;;;8.73;;
5191;SDS011;2615;44.524;11.284;2024-02-15T07:31:20;17.83;;;8.33;;
5191;SDS011;2615;44.524;11.284;2024-02-15T07:33:50;20.23;;;8.77;;
5191;SDS011;2615;44.524;11.284;2024-02-15T07:36:21;12.47;;;6.87;;
5191;SDS011;2615;44.524;11.284;2024-02-15T07:38:50;9.77;;;7.10;;
5191;SDS011;2615;44.524;11.284;2024-02-15T07:41:20;10.70;;;7.53;;
5191;SDS011;2615;44.524;11.284;2024-02-15T07:43:49;11.33;;;7.70;;
5191;SDS011;2615;44.524;11.284;2024-02-15T07:46:19;12.60;;;8.10;;
5191;SDS011;2615;44.524;11.284;2024-02-15T07:48:48;21.63;;;8.30;;
5191;SDS011;2615;44.524;11.284;2024-02-15T07:51:17;11.20;;;8.17;;
5191;SDS011;2615;44.524;11.284;2024-02-15T07:53:47;17.43;;;8.10;;
5191;SDS011;2615;44.524;11.284;2024-02-15T07:56:16;19.33;;;8.90;;
5191;SDS011;2615;44.524;11.284;2024-02-15T07:58:47;13.43;;;7.97;;
5191;SDS011;2615;44.524;11.284;2024-02-15T08:01:20;20.17;;;9.93;;
5191;SDS011;2615;44.524;11.284;2024-02-15T08:03:50;14.03;;;8.37;;
5191;SDS011;2615;44.524;11.284;2024-02-15T08:06:21;16.80;;;9.53;;
5191;SDS011;2615;44.524;11.284;2024-02-15T08:08:53;13.73;;;9.03;;
5191;SDS011;2615;44.524;11.284;2024-02-15T08:11:21;18.23;;;10.20;;
5191;SDS011;2615;44.524;11.284;2024-02-15T08:13:52;25.10;;;15.27;;
5191;SDS011;2615;44.524;11.284;2024-02-15T08:16:25;24.57;;;13.73;;
5191;SDS011;2615;44.524;11.284;2024-02-15T08:18:54;27.13;;;18.80;;
5191;SDS011;2615;44.524;11.284;2024-02-15T08:21:27;24.97;;;16.53;;
5191;SDS011;2615;44.524;11.284;2024-02-15T08:23:58;27.47;;;18.03;;
5191;SDS011;2615;44.524;11.284;2024-02-15T08:26:32;30.90;;;17.87;;
5191;SDS011;2615;44.524;11.284;2024-02-15T08:29:01;24.43;;;13.97;;
5191;SDS011;2615;44.524;11.284;2024-02-15T08:31:30;20.10;;;12.60;;
5191;SDS011;2615;44.524;11.284;2024-02-15T08:33:58;23.97;;;13.90;;
5191;SDS011;2615;44.524;11.284;2024-02-15T08:36:27;27.00;;;13.13;;
5191;SDS011;2615;44.524;11.284;2024-02-15T08:38:58;23.37;;;13.13;;
5191;SDS011;2615;44.524;11.284;2024-02-15T08:41:26;24.00;;;12.17;;
5191;SDS011;2615;44.524;11.284;2024-02-15T08:43:55;21.13;;;13.90;;
5191;SDS011;2615;44.524;11.284;2024-02-15T08:46:24;23.80;;;15.17;;
5191;SDS011;2615;44.524;11.284;2024-02-15T08:48:53;21.83;;;13.13;;
5191;SDS011;2615;44.524;11.284;2024-02-15T08:51:22;19.33;;;12.33;;
5191;SDS011;2615;44.524;11.284;2024-02-15T08:53:51;22.47;;;14.23;;
5191;SDS011;2615;44.524;11.284;2024-02-15T08:56:20;24.23;;;13.80;;
5191;SDS011;2615;44.524;11.284;2024-02-15T08:58:49;27.67;;;15.03;;
5191;SDS011;2615;44.524;11.284;2024-02-15T09:01:17;22.83;;;14.43;;
5191;SDS011;2615;44.524;11.284;2024-02-15T09:03:45;28.87;;;19.13;;
5191;SDS011;2615;44.524;11.284;2024-02-15T09:06:14;30.17;;;19.20;;
5191;SDS011;2615;44.524;11.284;2024-02-15T09:08:42;32.40;;;20.63;;
5191;SDS011;2615;44.524;11.284;2024-02-15T09:11:10;35.20;;;21.47;;
5191;SDS011;2615;44.524;11.284;2024-02-15T09:13:41;33.50;;;21.33;;
5191;SDS011;2615;44.524;11.284;2024-02-15T09:16:09;31.33;;;18.10;;
5191;SDS011;2615;44.524;11.284;2024-02-15T09:18:38;32.43;;;18.13;;
5191;SDS011;2615;44.524;11.284;2024-02-15T09:21:12;31.40;;;17.90;;
5191;SDS011;2615;44.524;11.284;2024-02-15T09:23:40;31.73;;;19.63;;
5191;SDS011;2615;44.524;11.284;2024-02-15T09:26:09;30.10;;;19.93;;
5191;SDS011;2615;44.524;11.284;2024-02-15T09:28:37;31.17;;;19.20;;
5191;SDS011;2615;44.524;11.284;2024-02-15T09:31:08;32.33;;;21.63;;
5191;SDS011;2615;44.524;11.284;2024-02-15T09:33:40;32.70;;;21.20;;
5191;SDS011;2615;44.524;11.284;2024-02-15T09:36:08;32.13;;;20.40;;
5191;SDS011;2615;44.524;11.284;2024-02-15T09:38:38;31.43;;;21.77;;
5191;SDS011;2615;44.524;11.284;2024-02-15T09:41:06;30.83;;;19.60;;
5191;SDS011;2615;44.524;11.284;2024-02-15T09:43:35;36.00;;;21.47;;
5191;SDS011;2615;44.524;11.284;2024-02-15T09:46:04;32.40;;;21.87;;
5191;SDS011;2615;44.524;11.284;2024-02-15T09:48:33;35.03;;;21.47;;
5191;SDS011;2615;44.524;11.284;2024-02-15T09:51:03;31.73;;;20.70;;
5191;SDS011;2615;44.524;11.284;2024-02-15T09:53:31;31.37;;;20.50;;
5191;SDS011;2615;44.524;11.284;2024-02-15T09:56:01;30.80;;;21.30;;
5191;SDS011;2615;44.524;11.284;2024-02-15T09:58:32;32.30;;;20.97;;
5191;SDS011;2615;44.524;11.284;2024-02-15T10:01:02;34.23;;;20.87;;
5191;SDS011;2615;44.524;11.284;2024-02-15T10:03:37;29.20;;;19.07;;
5191;SDS011;2615;44.524;11.284;2024-02-15T10:06:07;31.40;;;20.27;;
5191;SDS011;2615;44.524;11.284;2024-02-15T10:08:35;32.30;;;19.30;;
5191;SDS011;2615;44.524;11.284;2024-02-15T10:11:07;29.63;;;18.30;;
5191;SDS011;2615;44.524;11.284;2024-02-15T10:13:37;31.27;;;19.60;;
5191;SDS011;2615;44.524;11.284;2024-02-15T10:16:16;28.50;;;19.90;;
5191;SDS011;2615;44.524;11.284;2024-02-15T10:18:46;29.83;;;19.83;;
5191;SDS011;2615;44.524;11.284;2024-02-15T10:21:24;30.57;;;19.13;;
5191;SDS011;2615;44.524;11.284;2024-02-15T10:24:02;28.60;;;19.67;;
5191;SDS011;2615;44.524;11.284;2024-02-15T10:26:33;26.47;;;20.17;;
5191;SDS011;2615;44.524;11.284;2024-02-15T10:29:06;31.23;;;18.70;;
5191;SDS011;2615;44.524;11.284;2024-02-15T10:31:39;30.23;;;20.60;;
5191;SDS011;2615;44.524;11.284;2024-02-15T10:34:19;28.43;;;17.67;;
5191;SDS011;2615;44.524;11.284;2024-02-15T10:36:48;27.07;;;19.27;;
5191;SDS011;2615;44.524;11.284;2024-02-15T10:39:17;28.07;;;18.77;;
5191;SDS011;2615;44.524;11.284;2024-02-15T10:41:47;29.93;;;20.10;;
5191;SDS011;2615;44.524;11.284;2024-02-15T10:44:17;29.40;;;20.17;;
5191;SDS011;2615;44.524;11.284;2024-02-15T10:46:47;30.23;;;21.17;;
5191;SDS011;2615;44.524;11.284;2024-02-15T10:49:18;36.73;;;20.30;;
5191;SDS011;2615;44.524;11.284;2024-02-15T10:51:51;27.43;;;18.47;;
5191;SDS011;2615;44.524;11.284;2024-02-15T10:54:29;28.10;;;19.33;;
5191;SDS011;2615;44.524;11.284;2024-02-15T10:57:10;26.50;;;19.20;;
5191;SDS011;2615;44.524;11.284;2024-02-15T10:59:43;27.03;;;19.37;;
5191;SDS011;2615;44.524;11.284;2024-02-15T11:02:27;31.73;;;19.57;;
5191;SDS011;2615;44.524;11.284;2024-02-15T11:05:01;31.33;;;19.60;;
5191;SDS011;2615;44.524;11.284;2024-02-15T11:07:31;26.77;;;19.17;;
5191;SDS011;2615;44.524;11.284;2024-02-15T11:10:01;28.87;;;17.83;;
5191;SDS011;2615;44.524;11.284;2024-02-15T11:12:31;26.87;;;18.43;;
5191;SDS011;2615;44.524;11.284;2024-02-15T11:14:59;29.47;;;19.67;;
5191;SDS011;2615;44.524;11.284;2024-02-15T11:17:48;31.00;;;20.33;;
5191;SDS011;2615;44.524;11.284;2024-02-15T11:23:26;24.90;;;18.70;;
5191;SDS011;2615;44.524;11.284;2024-02-15T11:25:57;26.63;;;19.93;;
5191;SDS011;2615;44.524;11.284;2024-02-15T11:28:36;32.60;;;21.10;;
5191;SDS011;2615;44.524;11.284;2024-02-15T11:31:09;35.50;;;21.07;;
5191;SDS011;2615;44.524;11.284;2024-02-15T11:33:42;27.33;;;19.13;;
5191;SDS011;2615;44.524;11.284;2024-02-15T11:36:11;28.30;;;19.10;;
5191;SDS011;2615;44.524;11.284;2024-02-15T11:38:40;34.60;;;19.53;;
5191;SDS011;2615;44.524;11.284;2024-02-15T11:41:10;31.07;;;21.30;;
5191;SDS011;2615;44.524;11.284;2024-02-15T11:43:45;32.27;;;20.63;;
5191;SDS011;2615;44.524;11.284;2024-02-15T11:46:24;32.83;;;21.87;;
5191;SDS011;2615;44.524;11.284;2024-02-15T11:48:57;30.27;;;20.20;;
5191;SDS011;2615;44.524;11.284;2024-02-15T11:51:28;34.07;;;21.13;;
5191;SDS011;2615;44.524;11.284;2024-02-15T11:53:58;33.77;;;21.13;;
5191;SDS011;2615;44.524;11.284;2024-02-15T11:56:27;32.67;;;22.20;;
5191;SDS011;2615;44.524;11.284;2024-02-15T11:59:01;30.30;;;21.77;;
5191;SDS011;2615;44.524;11.284;2024-02-15T12:01:32;35.50;;;20.87;;
5191;SDS011;2615;44.524;11.284;2024-02-15T12:04:19;32.10;;;22.30;;
5191;SDS011;2615;44.524;11.284;2024-02-15T12:07:05;30.63;;;22.10;;
5191;SDS011;2615;44.524;11.284;2024-02-15T12:09:57;31.57;;;21.43;;
5191;SDS011;2615;44.524;11.284;2024-02-15T12:12:50;37.40;;;21.30;;
5191;SDS011;2615;44.524;11.284;2024-02-15T12:15:36;35.00;;;24.00;;
5191;SDS011;2615;44.524;11.284;2024-02-15T12:18:21;30.03;;;21.23;;
5191;SDS011;2615;44.524;11.284;2024-02-15T12:21:14;30.50;;;21.57;;
5191;SDS011;2615;44.524;11.284;2024-02-15T12:23:47;29.50;;;21.27;;
5191;SDS011;2615;44.524;11.284;2024-02-15T12:26:18;27.40;;;20.47;;
5191;SDS011;2615;44.524;11.284;2024-02-15T12:28:50;32.77;;;23.07;;
5191;SDS011;2615;44.524;11.284;2024-02-15T12:31:21;33.60;;;22.63;;
5191;SDS011;2615;44.524;11.284;2024-02-15T12:33:59;33.10;;;23.63;;
5191;SDS011;2615;44.524;11.284;2024-02-15T12:36:30;33.70;;;22.30;;
5191;SDS011;2615;44.524;11.284;2024-02-15T12:39:00;26.90;;;21.93;;
5191;SDS011;2615;44.524;11.284;2024-02-15T12:41:29;30.20;;;22.83;;
5191;SDS011;2615;44.524;11.284;2024-02-15T12:43:58;31.63;;;24.00;;
5191;SDS011;2615;44.524;11.284;2024-02-15T12:46:27;30.77;;;23.17;;
5191;SDS011;2615;44.524;11.284;2024-02-15T12:49:12;28.77;;;21.77;;
5191;SDS011;2615;44.524;11.284;2024-02-15T12:55:12;26.57;;;21.30;;
5191;SDS011;2615;44.524;11.284;2024-02-15T12:57:43;29.70;;;23.83;;
5191;SDS011;2615;44.524;11.284;2024-02-15T13:00:17;38.13;;;27.30;;
5191;SDS011;2615;44.524;11.284;2024-02-15T13:02:48;28.00;;;22.43;;
5191;SDS011;2615;44.524;11.284;2024-02-15T13:05:17;31.67;;;22.70;;
5191;SDS011;2615;44.524;11.284;2024-02-15T13:07:47;32.00;;;24.30;;
5191;SDS011;2615;44.524;11.284;2024-02-15T13:10:16;40.17;;;23.27;;
5191;SDS011;2615;44.524;11.284;2024-02-15T13:12:45;36.63;;;23.93;;
5191;SDS011;2615;44.524;11.284;2024-02-15T13:15:14;32.20;;;22.70;;
5191;SDS011;2615;44.524;11.284;2024-02-15T13:17:46;30.47;;;23.60;;
5191;SDS011;2615;44.524;11.284;2024-02-15T13:20:17;32.57;;;22.60;;
5191;SDS011;2615;44.524;11.284;2024-02-15T13:22:58;34.63;;;24.00;;
5191;SDS011;2615;44.524;11.284;2024-02-15T13:25:29;31.30;;;23.93;;
5191;SDS011;2615;44.524;11.284;2024-02-15T13:27:57;31.67;;;23.57;;
5191;SDS011;2615;44.524;11.284;2024-02-15T13:30:25;37.30;;;25.83;;
5191;SDS011;2615;44.524;11.284;2024-02-15T13:32:54;32.40;;;25.50;;
5191;SDS011;2615;44.524;11.284;2024-02-15T13:35:23;31.73;;;25.50;;
5191;SDS011;2615;44.524;11.284;2024-02-15T13:37:52;39.60;;;26.40;;
5191;SDS011;2615;44.524;11.284;2024-02-15T13:40:22;34.17;;;24.30;;
5191;SDS011;2615;44.524;11.284;2024-02-15T13:42:51;35.57;;;22.60;;
5191;SDS011;2615;44.524;11.284;2024-02-15T13:45:22;36.33;;;24.70;;
5191;SDS011;2615;44.524;11.284;2024-02-15T13:47:56;33.97;;;23.43;;
5191;SDS011;2615;44.524;11.284;2024-02-15T13:50:24;35.63;;;23.50;;
5191;SDS011;2615;44.524;11.284;2024-02-15T13:52:52;31.13;;;24.77;;
5191;SDS011;2615;44.524;11.284;2024-02-15T13:55:20;34.53;;;24.03;;
5191;SDS011;2615;44.524;11.284;2024-02-15T13:57:51;33.77;;;24.03;;
5191;SDS011;2615;44.524;11.284;2024-02-15T14:00:22;32.50;;;21.57;;
5191;SDS011;2615;44.524;11.284;2024-02-15T14:02:57;37.77;;;26.60;;
5191;SDS011;2615;44.524;11.284;2024-02-15T14:05:26;36.83;;;24.23;;
5191;SDS011;2615;44.524;11.284;2024-02-15T14:07:57;38.83;;;24.93;;
5191;SDS011;2615;44.524;11.284;2024-02-15T14:10:27;30.80;;;21.33;;
5191;SDS011;2615;44.524;11.284;2024-02-15T14:12:56;39.30;;;24.97;;
5191;SDS011;2615;44.524;11.284;2024-02-15T14:15:26;34.00;;;23.90;;
5191;SDS011;2615;44.524;11.284;2024-02-15T14:17:54;39.60;;;24.73;;
5191;SDS011;2615;44.524;11.284;2024-02-15T14:20:24;38.57;;;25.97;;
5191;SDS011;2615;44.524;11.284;2024-02-15T14:22:52;34.23;;;24.40;;
5191;SDS011;2615;44.524;11.284;2024-02-15T14:25:22;38.17;;;25.33;;
5191;SDS011;2615;44.524;11.284;2024-02-15T14:27:54;37.80;;;26.67;;
5191;SDS011;2615;44.524;11.284;2024-02-15T14:30:23;42.47;;;26.47;;
5191;SDS011;2615;44.524;11.284;2024-02-15T14:33:09;35.90;;;23.30;;
5191;SDS011;2615;44.524;11.284;2024-02-15T14:35:48;38.33;;;21.60;;
5191;SDS011;2615;44.524;11.284;2024-02-15T14:38:20;46.07;;;25.20;;
5191;SDS011;2615;44.524;11.284;2024-02-15T14:40:49;39.60;;;26.43;;
5191;SDS011;2615;44.524;11.284;2024-02-15T14:43:22;39.40;;;27.90;;
5191;SDS011;2615;44.524;11.284;2024-02-15T14:45:52;41.27;;;26.03;;
5191;SDS011;2615;44.524;11.284;2024-02-15T14:48:22;39.77;;;24.43;;
5191;SDS011;2615;44.524;11.284;2024-02-15T14:50:52;41.50;;;25.80;;
5191;SDS011;2615;44.524;11.284;2024-02-15T14:53:23;44.63;;;25.50;;
5191;SDS011;2615;44.524;11.284;2024-02-15T14:55:51;41.73;;;28.20;;
5191;SDS011;2615;44.524;11.284;2024-02-15T14:58:20;39.93;;;24.87;;
5191;SDS011;2615;44.524;11.284;2024-02-15T15:00:49;41.40;;;28.90;;
5191;SDS011;2615;44.524;11.284;2024-02-15T15:03:25;44.13;;;27.87;;
5191;SDS011;2615;44.524;11.284;2024-02-15T15:05:58;42.93;;;24.63;;